Lynn Lake Airport
CYYL : rendu visible

Aérodrome :











RETROUVEZ-NOUS SUR...

 
LOGIN :

S'inscrire | Disclaimer

   EN    FR    IT 

 









Légende :    VFR   VFR Marginal   IFR   IFR Intensif   IFR Très Intensif
Visi : 
Plafond : 
>= 8 km
>= 3000ft
5 à 8 km
1000 à 3000 ft
1500m à 5 km
500 à 1000 ft
800 à 1500m
200 à 500 ft
< 800m
< 200 ft
Symboles :   Orages  Brouillard  Fortes neiges  Fortes précipitations  Vent > 20 kt






- Altitude de l'aérodrome : 1170 ft
- Code IATA : YYL


CYYL - Lynn Lake

DERNIER METAR :
  • 221600Z AUTO 13003KT 9SM BKN090 M10/M11 A2947 RMK SLP009

METARs EXPIRÉS :
  • 221500Z AUTO 12003KT 9SM CLR M12/M12 A2947 RMK SLP008
  • 221400Z AUTO 12004KT 9SM CLR M13/M13 A2945 RMK SLP003

TAF TAF CYYL
Valide du 22 à 13h jusqu'au 23 à 01h UTC


221238Z 2213/2301 VRB03KT P6SM FEW005 SCT070
TEMPO 2213/2217 SCT005 BKN070
PROB30 2213/2217 4SM BR BKN005
FM221700 26006KT P6SM FEW010 SCT060 RMK FCST BASED ON AUTO OBS. NXT FCST BY 221900Z



MET'MAP, la Météo Aéronautique d'un coup d'oeil ! - Copyright ORBIFLY Décembre 2007 - Disclaimer

ORBIFLY MET'MAP TEAM :

Programmation & Développement : Alexandra Zaïnal
Sur une idée originale de : Baudouin d'Aumeries
Assistance à la programmation : Marc-Olivier Méhu
Soutien technique & logistique : Manuel Goepfert

Contact : metmap@orbifly.com




SOURCES & CREDITS :

   NOAA       Earth
Advisory